Terminal Aerodrome Forecast
Issued by NWS

Home | Current Version | Previous Version | Text Only | Print | Product List | Glossary On
Versions: 1 2 3 4 5 6 7 8 9 10 11 12 13 14
735
FTUS43 KDVN 242320
TAFBRL
TAF
KBRL 242320Z 2500/2524 25010KT P6SM SCT150
     FM250130 29014G23KT P6SM SCT100
     FM250600 32010KT P6SM SCT150
     FM251000 31008KT P6SM SKC=

USA.gov is the U.S. government's official web portal to all federal, state and local government web resources and services.